Time;durP1;ratioP1;P1;durP2;ratioP2;P2;SDS_P1;SDS_P2;PMS_P1;PMS_P2;Temp;Humidity;BMP_temperature;BMP_pressure;BME280_temperature;BME280_humidity;BME280_pressure;Samples;Min_cycle;Max_cycle;Signal;HPM_P1;HPM_P2
2023/03/04 00:01:09;;;;;;;24.40;14.27;;;;;;;;;;5074874;28;20450;-86
2023/03/04 00:03:37;;;;;;;31.70;14.30;;;;;;;;;;5076128;28;20451;-80
2023/03/04 00:06:05;;;;;;;29.77;14.57;;;;;;;;;;5075912;28;20481;-88
2023/03/04 00:08:32;;;;;;;37.53;16.73;;;;;;;;;;5076205;28;20528;-91
2023/03/04 00:10:59;;;;;;;33.70;17.00;;;;;;;;;;5075822;28;20437;-82
2023/03/04 00:13:26;;;;;;;30.07;14.60;;;;;;;;;;5075852;28;20445;-81
2023/03/04 00:15:53;;;;;;;30.23;15.73;;;;;;;;;;5074577;28;20928;-81
2023/03/04 00:18:20;;;;;;;36.77;18.20;;;;;;;;;;5075897;28;20474;-82
2023/03/04 00:20:49;;;;;;;26.17;15.20;;;0.80;99.90;;;;;;5077036;28;20481;-92
2023/03/04 00:23:16;;;;;;;28.07;14.90;;;;;;;;;;5076923;28;20929;-84
2023/03/04 00:25:44;;;;;;;29.97;16.10;;;;;;;;;;5072102;28;20503;-86
2023/03/04 00:28:11;;;;;;;30.60;16.83;;;;;;;;;;5096508;28;20496;-86
2023/03/04 00:30:38;;;;;;;28.50;15.73;;;;;;;;;;5096222;28;20830;-91
2023/03/04 00:33:05;;;;;;;31.77;15.80;;;;;;;;;;5094615;28;20456;-93
2023/03/04 00:35:33;;;;;;;32.07;17.03;;;;;;;;;;5096630;28;20536;-85
2023/03/04 00:38:01;;;;;;;28.00;16.07;;;;;;;;;;5096116;28;20451;-85
2023/03/04 00:40:28;;;;;;;30.77;17.13;;;;;;;;;;5093626;28;20437;-82
2023/03/04 00:42:55;;;;;;;28.87;15.70;;;;;;;;;;5075753;28;20819;-80
2023/03/04 00:45:22;;;;;;;31.40;16.30;;;;;;;;;;5075321;28;20450;-86
2023/03/04 00:47:49;;;;;;;28.40;15.27;;;;;;;;;;5074317;28;20486;-81
2023/03/04 00:50:17;;;;;;;27.70;14.73;;;;;;;;;;5075486;28;20448;-81
2023/03/04 00:52:44;;;;;;;24.17;14.20;;;;;;;;;;5075641;28;20533;-88
2023/03/04 00:55:12;;;;;;;30.13;13.90;;;;;;;;;;5076325;28;20448;-91
2023/03/04 00:57:39;;;;;;;27.73;16.60;;;;;;;;;;5076149;28;20478;-90
2023/03/04 01:00:07;;;;;;;27.10;14.17;;;;;;;;;;5076349;28;20815;-90
2023/03/04 01:02:34;;;;;;;33.20;15.53;;;;;;;;;;5074750;28;20446;-84
2023/03/04 01:05:01;;;;;;;25.67;14.93;;;;;;;;;;5076116;28;20853;-89
2023/03/04 01:07:28;;;;;;;30.33;14.50;;;;;;;;;;5095237;28;20499;-87
2023/03/04 01:09:55;;;;;;;30.13;14.33;;;;;;;;;;5094482;28;20456;-84
2023/03/04 01:12:23;;;;;;;25.23;13.73;;;;;;;;;;5074616;28;20449;-80
2023/03/04 01:14:50;;;;;;;24.47;14.37;;;;;;;;;;5074431;28;20453;-87
2023/03/04 01:17:18;;;;;;;31.87;16.00;;;;;;;;;;5073447;28;20450;-92
2023/03/04 01:19:45;;;;;;;29.07;14.67;;;;;;;;;;5075230;28;20608;-79
2023/03/04 01:22:13;;;;;;;31.60;15.67;;;;;;;;;;5077908;28;20448;-90
2023/03/04 01:24:41;;;;;;;21.57;12.60;;;;;;;;;;5095567;28;20491;-82
2023/03/04 01:27:09;;;;;;;27.93;14.07;;;;;;;;;;5094674;28;20817;-80
2023/03/04 01:29:38;;;;;;;30.00;14.83;;;;;;;;;;5096173;28;20484;-88
2023/03/04 01:32:05;;;;;;;31.23;14.93;;;;;;;;;;5094910;28;20559;-87
2023/03/04 01:34:32;;;;;;;25.50;13.80;;;;;;;;;;5095418;28;20445;-92
2023/03/04 01:36:59;;;;;;;28.30;13.93;;;;;;;;;;5095230;28;20449;-80
2023/03/04 01:39:27;;;;;;;18.40;11.70;;;;;;;;;;5091709;28;20469;-87
2023/03/04 01:41:54;;;;;;;26.60;13.50;;;;;;;;;;5073808;28;20425;-91
2023/03/04 01:44:21;;;;;;;29.90;13.60;;;;;;;;;;5075128;28;20804;-81
2023/03/04 01:46:52;;;;;;;26.40;13.50;;;-0.30;99.90;;;;;;5074001;28;20438;-93
2023/03/04 01:49:20;;;;;;;20.23;11.77;;;;;;;;;;5084394;28;20492;-92
2023/03/04 01:51:51;;;;;;;22.47;13.10;;;-0.30;99.90;;;;;;5095100;28;20445;-87
2023/03/04 01:54:18;;;;;;;41.67;14.60;;;;;;;;;;5090021;28;20536;-92
2023/03/04 01:56:46;;;;;;;28.37;13.50;;;-0.30;99.90;;;;;;5083023;28;20456;-89
2023/03/04 01:59:15;;;;;;;27.03;13.63;;;;;;;;;;5094900;28;20476;-92
2023/03/04 02:01:44;;;;;;;26.37;13.60;;;-0.30;99.90;;;;;;5094712;28;20449;-87
2023/03/04 02:04:13;;;;;;;24.90;14.70;;;;;;;;;;5093366;28;20440;-92
2023/03/04 02:06:41;;;;;;;25.63;14.13;;;-0.30;99.90;;;;;;5086650;28;20852;-91
2023/03/04 02:09:08;;;;;;;29.23;13.87;;;-0.40;99.90;;;;;;5074707;28;20489;-83
2023/03/04 02:11:37;;;;;;;25.07;14.03;;;-0.40;99.90;;;;;;5074535;28;20446;-93
2023/03/04 02:14:05;;;;;;;25.70;13.30;;;-0.40;99.90;;;;;;5074691;28;20441;-92
2023/03/04 02:16:32;;;;;;;25.77;12.63;;;;;;;;;;5073689;28;20469;-92
2023/03/04 02:19:01;;;;;;;21.87;11.63;;;;;;;;;;5074637;28;20515;-89
2023/03/04 02:21:30;;;;;;;23.43;12.47;;;;;;;;;;5074527;28;20445;-93
2023/03/04 02:24:01;;;;;;;23.73;11.80;;;;;;;;;;5074095;28;20442;-93
2023/03/04 02:26:30;;;;;;;25.03;12.30;;;-0.40;99.90;;;;;;5076819;28;20864;-92
2023/03/04 02:28:59;;;;;;;24.43;12.53;;;-0.20;99.90;;;;;;5071937;28;21102;-88
2023/03/04 02:31:29;;;;;;;32.60;15.20;;;-0.30;99.90;;;;;;5072628;28;20441;-93
2023/03/04 02:34:00;;;;;;;25.87;13.50;;;-0.20;99.90;;;;;;5074033;28;20452;-92
2023/03/04 02:36:27;;;;;;;29.93;13.80;;;;;;;;;;5082541;28;20940;-85
2023/03/04 02:38:55;;;;;;;25.20;13.83;;;0.10;99.90;;;;;;5094369;28;20449;-83
2023/03/04 02:41:26;;;;;;;32.33;13.03;;;0.20;99.90;;;;;;5094032;28;20445;-92
2023/03/04 02:43:55;;;;;;;23.20;12.30;;;0.10;99.90;;;;;;5091843;28;20448;-85
2023/03/04 02:46:22;;;;;;;20.67;11.87;;;;;;;;;;5084663;28;20925;-83
2023/03/04 02:48:50;;;;;;;24.50;10.50;;;0.20;99.90;;;;;;5073731;28;20497;-92
2023/03/04 02:51:17;;;;;;;22.70;13.10;;;;;;;;;;5074143;28;20434;-92
2023/03/04 02:53:44;;;;;;;25.27;13.23;;;;;;;;;;5073496;28;20952;-83
2023/03/04 02:56:11;;;;;;;25.37;13.20;;;;;;;;;;5073610;28;20453;-94
2023/03/04 02:58:39;;;;;;;29.77;13.87;;;;;;;;;;5073397;28;20489;-85
2023/03/04 03:01:07;;;;;;;29.73;15.57;;;;;;;;;;5072196;28;20657;-83
2023/03/04 03:03:34;;;;;;;19.47;10.63;;;;;;;;;;5073458;28;20845;-83
2023/03/04 03:06:02;;;;;;;25.00;13.07;;;;;;;;;;5078148;28;20480;-93
2023/03/04 03:08:29;;;;;;;26.27;13.03;;;;;;;;;;5093472;28;20511;-90
2023/03/04 03:10:56;;;;;;;27.47;13.97;;;;;;;;;;5093445;28;20449;-83
2023/03/04 03:13:23;;;;;;;21.97;12.83;;;;;;;;;;5093551;28;20440;-83
2023/03/04 03:15:50;;;;;;;26.50;13.33;;;;;;;;;;5089588;28;20450;-83
2023/03/04 03:18:19;;;;;;;25.43;13.73;;;;;;;;;;5072815;28;20487;-92
2023/03/04 03:20:46;;;;;;;23.00;12.87;;;;;;;;;;5073040;28;20446;-92
2023/03/04 03:23:13;;;;;;;27.23;14.63;;;;;;;;;;5073145;28;20445;-83
2023/03/04 03:25:40;;;;;;;20.37;11.47;;;;;;;;;;5074382;28;20449;-87
2023/03/04 03:28:07;;;;;;;17.30;9.07;;;;;;;;;;5095257;28;20552;-85
2023/03/04 03:30:34;;;;;;;21.80;11.73;;;;;;;;;;5097449;28;20447;-82
2023/03/04 03:33:01;;;;;;;19.33;11.13;;;;;;;;;;5096290;28;20459;-82
2023/03/04 03:35:30;;;;;;;29.47;13.40;;;;;;;;;;5097294;28;20948;-89
2023/03/04 03:37:57;;;;;;;24.83;12.50;;;;;;;;;;5091551;28;20464;-83
2023/03/04 03:40:24;;;;;;;23.70;12.17;;;;;;;;;;5076953;28;20460;-83
2023/03/04 03:42:51;;;;;;;27.53;13.40;;;;;;;;;;5077431;28;20429;-93
2023/03/04 03:45:18;;;;;;;22.50;11.47;;;;;;;;;;5076882;28;20449;-83
2023/03/04 03:47:45;;;;;;;21.00;10.67;;;;;;;;;;5075942;28;20449;-84
2023/03/04 03:50:13;;;;;;;19.90;10.40;;;;;;;;;;5076320;28;20460;-84
2023/03/04 03:52:41;;;;;;;25.40;12.03;;;-0.20;99.90;;;;;;5093611;28;20907;-93
2023/03/04 03:55:08;;;;;;;27.27;13.20;;;;;;;;;;5097008;28;20448;-88
2023/03/04 03:57:35;;;;;;;29.73;12.47;;;;;;;;;;5096884;28;20458;-83
2023/03/04 04:00:02;;;;;;;30.30;14.53;;;;;;;;;;5096683;28;20487;-88
2023/03/04 04:02:30;;;;;;;22.77;12.93;;;;;;;;;;5083699;28;20457;-84
2023/03/04 04:04:57;;;;;;;24.63;11.23;;;;;;;;;;5076656;28;20420;-83
2023/03/04 04:07:24;;;;;;;16.60;10.10;;;;;;;;;;5076565;28;20481;-92
2023/03/04 04:09:52;;;;;;;22.33;11.07;;;;;;;;;;5080499;28;20843;-84
2023/03/04 04:12:20;;;;;;;24.70;12.90;;;;;;;;;;5096672;28;20457;-83
2023/03/04 04:14:47;;;;;;;23.47;13.47;;;;;;;;;;5096352;28;20456;-84
2023/03/04 04:17:14;;;;;;;24.60;13.00;;;;;;;;;;5095624;28;20463;-93
2023/03/04 04:19:41;;;;;;;19.47;11.43;;;;;;;;;;5076778;28;20496;-89
2023/03/04 04:22:08;;;;;;;22.90;13.03;;;;;;;;;;5076599;28;20448;-90
2023/03/04 04:24:35;;;;;;;18.60;11.70;;;;;;;;;;5076278;28;20480;-84
2023/03/04 04:27:04;;;;;;;27.27;12.87;;;;;;;;;;5077030;28;20452;-83
2023/03/04 04:29:31;;;;;;;22.50;12.63;;;;;;;;;;5104066;28;20936;-85
2023/03/04 04:31:58;;;;;;;23.40;12.77;;;;;;;;;;5097777;28;20475;-84
2023/03/04 04:34:25;;;;;;;22.70;12.17;;;;;;;;;;5078504;28;20450;-90
2023/03/04 04:36:52;;;;;;;21.27;11.70;;;;;;;;;;5076135;28;20449;-91
2023/03/04 04:39:20;;;;;;;24.67;14.07;;;;;;;;;;5092217;28;20489;-88
2023/03/04 04:41:47;;;;;;;25.20;13.07;;;;;;;;;;5096448;28;20462;-92
2023/03/04 04:44:15;;;;;;;23.97;12.50;;;-0.80;99.90;;;;;;5096327;28;20471;-83
2023/03/04 04:46:42;;;;;;;25.97;11.07;;;;;;;;;;5092898;28;20452;-92
2023/03/04 04:49:10;;;;;;;26.93;12.53;;;;;;;;;;5079615;28;20464;-84
2023/03/04 04:51:38;;;;;;;17.57;10.70;;;-0.90;99.90;;;;;;5075925;28;20466;-85
2023/03/04 04:54:05;;;;;;;26.13;12.30;;;;;;;;;;5076078;28;20494;-90
2023/03/04 04:56:32;;;;;;;32.53;13.80;;;;;;;;;;5075971;28;20441;-84
2023/03/04 04:59:02;;;;;;;27.03;13.70;;;-1.00;99.90;;;;;;5075410;28;20485;-93
2023/03/04 05:01:30;;;;;;;21.43;11.10;;;;;;;;;;5074556;28;20441;-91
2023/03/04 05:03:57;;;;;;;23.60;13.00;;;;;;;;;;5076019;28;20944;-88
2023/03/04 05:06:25;;;;;;;23.07;11.07;;;;;;;;;;5087612;28;21021;-90
2023/03/04 05:08:52;;;;;;;22.77;12.70;;;;;;;;;;5096395;28;20797;-89
2023/03/04 05:11:20;;;;;;;18.03;10.30;;;-0.80;99.90;;;;;;5096505;28;20452;-91
2023/03/04 05:13:48;;;;;;;20.10;10.87;;;-0.80;99.90;;;;;;5096060;28;20443;-88
2023/03/04 05:16:15;;;;;;;20.90;11.47;;;;;;;;;;5095509;28;20455;-93
2023/03/04 05:18:44;;;;;;;20.77;11.73;;;;;;;;;;5095945;28;20488;-91
2023/03/04 05:21:11;;;;;;;25.43;12.47;;;;;;;;;;5096223;28;20460;-90
2023/03/04 05:23:39;;;;;;;29.13;12.20;;;-0.80;99.90;;;;;;5096248;28;20787;-89
2023/03/04 05:26:08;;;;;;;23.63;11.60;;;-0.90;99.90;;;;;;5096014;28;20908;-92
2023/03/04 05:28:35;;;;;;;24.37;12.50;;;;;;;;;;5096081;28;20445;-93
2023/03/04 05:31:02;;;;;;;25.43;12.20;;;;;;;;;;5095108;28;20456;-91
2023/03/04 05:33:29;;;;;;;22.53;11.93;;;;;;;;;;5095846;28;20458;-88
2023/03/04 05:35:58;;;;;;;27.00;12.20;;;;;;;;;;5095818;28;20502;-90
2023/03/04 05:38:25;;;;;;;30.17;12.90;;;;;;;;;;5095815;28;20458;-91
2023/03/04 05:40:57;;;;;;;22.20;12.47;;;-0.90;99.90;;;;;;5095598;28;20488;-92
2023/03/04 05:43:24;;;;;;;19.20;11.00;;;;;;;;;;5095950;28;20449;-90
2023/03/04 05:45:51;;;;;;;25.17;10.00;;;;;;;;;;5095205;28;20440;-87
2023/03/04 05:48:18;;;;;;;26.57;11.33;;;;;;;;;;5095394;28;20453;-90
2023/03/04 05:50:45;;;;;;;20.17;11.20;;;;;;;;;;5094982;28;20812;-91
2023/03/04 05:53:14;;;;;;;27.13;11.57;;;;;;;;;;5095489;28;20456;-90
2023/03/04 05:55:41;;;;;;;22.53;11.20;;;;;;;;;;5095609;28;20451;-90
2023/03/04 05:58:08;;;;;;;31.90;15.30;;;;;;;;;;5095510;28;20441;-92
2023/03/04 06:00:35;;;;;;;23.73;11.53;;;;;;;;;;5096190;28;20498;-89
2023/03/04 06:03:02;;;;;;;22.97;13.30;;;;;;;;;;5094607;28;20943;-90
2023/03/04 06:05:29;;;;;;;20.50;10.33;;;;;;;;;;5108609;28;20478;-87
2023/03/04 06:07:56;;;;;;;21.70;12.03;;;;;;;;;;5105511;28;20528;-86
2023/03/04 06:10:25;;;;;;;21.47;11.43;;;;;;;;;;5090836;28;20465;-86
2023/03/04 06:12:52;;;;;;;24.80;11.77;;;;;;;;;;5093966;28;20459;-87
2023/03/04 06:15:19;;;;;;;25.43;12.13;;;;;;;;;;5093553;28;20455;-86
2023/03/04 06:17:49;;;;;;;25.50;12.60;;;;;;;;;;5077951;28;20944;-86
2023/03/04 06:20:16;;;;;;;21.60;12.70;;;;;;;;;;5074061;28;20496;-90
2023/03/04 06:22:43;;;;;;;25.30;12.27;;;;;;;;;;5074041;28;20453;-89
2023/03/04 06:25:10;;;;;;;29.23;13.17;;;;;;;;;;5074672;28;20456;-90
2023/03/04 06:27:39;;;;;;;20.40;12.33;;;;;;;;;;5074670;28;20446;-88
2023/03/04 06:30:09;;;;;;;34.90;14.07;;;;;;;;;;5089858;28;20902;-88
2023/03/04 06:32:43;;;;;;;24.00;11.93;;;;;;;;;;5073281;28;20936;-85
2023/03/04 06:35:10;;;;;;;31.23;13.57;;;;;;;;;;5073978;28;20449;-89
2023/03/04 06:37:37;;;;;;;24.33;13.80;;;;;;;;;;5079310;28;20469;-89
2023/03/04 06:40:06;;;;;;;28.13;13.03;;;;;;;;;;5094111;28;20845;-87
2023/03/04 06:42:33;;;;;;;27.10;12.13;;;;;;;;;;5091428;28;20776;-85
2023/03/04 06:45:02;;;;;;;28.90;13.83;;;;;;;;;;5093375;28;20963;-90
2023/03/04 06:47:29;;;;;;;26.90;13.20;;;;;;;;;;5090260;28;20456;-85
2023/03/04 06:49:56;;;;;;;23.93;12.50;;;;;;;;;;5091964;28;20459;-85
2023/03/04 06:52:23;;;;;;;25.43;12.50;;;;;;;;;;5094286;28;20440;-89
2023/03/04 06:54:50;;;;;;;24.83;12.13;;;;;;;;;;5094100;28;20452;-87
2023/03/04 06:57:17;;;;;;;29.70;12.17;;;;;;;;;;5094212;28;20453;-84
2023/03/04 06:59:44;;;;;;;27.07;13.63;;;;;;;;;;5093897;28;20485;-90
2023/03/04 07:02:13;;;;;;;28.73;11.53;;;;;;;;;;5092953;28;20445;-88
2023/03/04 07:04:40;;;;;;;19.63;10.83;;;;;;;;;;5088216;28;20450;-88
2023/03/04 07:07:07;;;;;;;21.53;11.90;;;;;;;;;;5073560;28;20477;-83
2023/03/04 07:09:34;;;;;;;20.00;11.97;;;;;;;;;;5074129;28;20954;-88
2023/03/04 07:12:01;;;;;;;25.60;12.10;;;;;;;;;;5073674;28;20468;-92
2023/03/04 07:14:28;;;;;;;20.67;10.90;;;;;;;;;;5080306;28;20492;-85
2023/03/04 07:16:55;;;;;;;19.67;9.97;;;;;;;;;;5073558;28;20465;-89
2023/03/04 07:19:24;;;;;;;28.20;13.40;;;;;;;;;;5085215;28;20493;-90
2023/03/04 07:21:51;;;;;;;23.50;11.90;;;;;;;;;;5075983;28;20953;-84
2023/03/04 07:24:19;;;;;;;21.23;11.43;;;;;;;;;;5085566;28;20441;-85
2023/03/04 07:26:46;;;;;;;27.13;13.47;;;;;;;;;;5092874;28;20449;-83
2023/03/04 07:29:13;;;;;;;19.70;10.37;;;;;;;;;;5072979;28;20459;-84
2023/03/04 07:31:40;;;;;;;15.53;9.80;;;;;;;;;;5071810;28;20538;-83
2023/03/04 07:34:11;;;;;;;25.87;12.33;;;0.20;99.90;;;;;;5072861;28;20463;-84
2023/03/04 07:36:40;;;;;;;27.67;12.53;;;;;;;;;;5073106;28;20465;-83
2023/03/04 07:39:07;;;;;;;26.50;11.70;;;;;;;;;;5080968;28;20460;-84
2023/03/04 07:41:35;;;;;;;21.00;11.73;;;;;;;;;;5091799;28;20472;-85
2023/03/04 07:44:03;;;;;;;23.73;11.67;;;0.20;99.90;;;;;;5090720;28;20478;-87
2023/03/04 07:46:30;;;;;;;25.93;12.50;;;;;;;;;;5091151;28;20451;-84
2023/03/04 07:48:58;;;;;;;21.60;10.37;;;;;;;;;;5084297;28;20460;-81
2023/03/04 07:51:28;;;;;;;22.77;10.93;;;0.30;99.90;;;;;;5072130;28;20441;-85
2023/03/04 07:53:58;;;;;;;23.97;11.07;;;0.30;99.90;;;;;;5072721;28;20445;-83
2023/03/04 07:56:26;;;;;;;19.20;10.70;;;0.40;99.90;;;;;;5074953;28;20831;-84
2023/03/04 07:58:55;;;;;;;25.50;12.90;;;;;;;;;;5072131;28;20457;-84
2023/03/04 08:01:24;;;;;;;19.17;10.10;;;0.20;99.90;;;;;;5071401;28;20493;-83
2023/03/04 08:03:51;;;;;;;20.90;9.80;;;;;;;;;;5073365;28;20863;-81
2023/03/04 08:06:20;;;;;;;27.03;13.73;;;0.50;99.90;;;;;;5079289;28;20506;-81
2023/03/04 08:08:48;;;;;;;22.03;9.73;;;0.40;99.90;;;;;;5092239;28;20434;-81
2023/03/04 08:11:18;;;;;;;21.03;12.13;;;0.30;99.90;;;;;;5089290;28;20480;-86
2023/03/04 08:13:45;;;;;;;22.93;11.93;;;;;;;;;;5073031;28;20477;-81
2023/03/04 08:16:14;;;;;;;21.83;10.97;;;;;;;;;;5074879;28;20469;-80
2023/03/04 08:18:41;;;;;;;26.03;12.00;;;;;;;;;;5077026;28;20458;-80
2023/03/04 08:21:10;;;;;;;26.10;11.67;;;0.40;99.90;;;;;;5076057;28;20512;-80
2023/03/04 08:23:37;;;;;;;22.53;12.50;;;;;;;;;;5076164;28;20822;-81
2023/03/04 08:26:07;;;;;;;21.70;12.13;;;0.50;99.90;;;;;;5075900;28;20510;-80
2023/03/04 08:28:36;;;;;;;23.90;11.40;;;;;;;;;;5076170;28;20519;-80
2023/03/04 08:31:03;;;;;;;24.37;12.43;;;;;;;;;;5074712;28;20907;-80
2023/03/04 08:33:30;;;;;;;22.90;12.47;;;;;;;;;;5083389;28;20464;-81
2023/03/04 08:35:57;;;;;;;21.00;11.57;;;;;;;;;;5107303;28;20484;-83
2023/03/04 08:38:24;;;;;;;21.37;11.30;;;;;;;;;;5082704;28;20465;-83
2023/03/04 08:40:54;;;;;;;27.93;11.37;;;0.80;99.90;;;;;;5076135;28;20486;-82
2023/03/04 08:43:21;;;;;;;24.03;14.03;;;;;;;;;;5075335;28;20473;-82
2023/03/04 08:45:49;;;;;;;20.17;11.60;;;0.80;99.90;;;;;;5076876;28;20466;-81
2023/03/04 08:48:16;;;;;;;22.63;11.13;;;;;;;;;;5074603;28;20465;-82
2023/03/04 08:50:44;;;;;;;28.27;12.80;;;;;;;;;;5092071;28;20452;-83
2023/03/04 08:53:11;;;;;;;19.03;11.77;;;;;;;;;;5095674;28;20445;-83
2023/03/04 08:55:39;;;;;;;25.57;12.43;;;;;;;;;;5077960;28;20972;-84
2023/03/04 08:58:06;;;;;;;27.13;10.40;;;;;;;;;;5075308;28;20453;-84
2023/03/04 09:00:33;;;;;;;25.90;13.13;;;;;;;;;;5075070;28;20492;-83
2023/03/04 09:03:02;;;;;;;18.70;10.03;;;0.80;99.90;;;;;;5073996;28;20461;-83
2023/03/04 09:05:29;;;;;;;23.80;12.00;;;;;;;;;;5084596;28;20537;-83
2023/03/04 09:07:56;;;;;;;21.60;11.10;;;;;;;;;;5072826;28;20477;-79
2023/03/04 09:10:24;;;;;;;22.00;10.73;;;;;;;;;;5074978;28;20457;-81
2023/03/04 09:12:57;;;;;;;28.57;14.80;;;;;;;;;;5074866;28;20457;-80
2023/03/04 09:15:25;;;;;;;24.47;12.23;;;;;;;;;;5085920;28;20449;-80
2023/03/04 09:17:53;;;;;;;31.67;13.83;;;;;;;;;;5093005;28;20465;-79
2023/03/04 09:20:22;;;;;;;22.20;10.00;;;;;;;;;;5089705;28;20493;-79
2023/03/04 09:22:49;;;;;;;23.23;10.20;;;;;;;;;;5088345;28;20449;-78
2023/03/04 09:25:16;;;;;;;24.70;13.33;;;;;;;;;;5094776;28;20449;-80
2023/03/04 09:27:43;;;;;;;23.60;13.20;;;;;;;;;;5075884;28;20449;-79
2023/03/04 09:30:11;;;;;;;19.57;10.43;;;1.70;99.90;;;;;;5074290;28;20453;-79
2023/03/04 09:32:38;;;;;;;22.97;12.07;;;;;;;;;;5073232;28;20532;-78
2023/03/04 09:35:06;;;;;;;20.30;10.30;;;1.10;99.90;;;;;;5074313;28;20456;-79
2023/03/04 09:37:34;;;;;;;25.07;10.63;;;;;;;;;;5073808;28;20944;-79
2023/03/04 09:40:02;;;;;;;19.47;11.60;;;;;;;;;;5074251;28;20449;-78
2023/03/04 09:42:35;;;;;;;38.80;14.80;;;1.20;99.90;;;;;;5078392;28;20479;-78
2023/03/04 09:45:05;;;;;;;27.27;10.53;;;1.20;99.90;;;;;;5078021;28;20441;-78
2023/03/04 09:47:34;;;;;;;20.97;12.30;;;1.10;99.90;;;;;;5089327;28;20472;-79
2023/03/04 09:50:03;;;;;;;24.83;13.63;;;1.30;99.90;;;;;;5083485;28;20457;-79
2023/03/04 09:52:43;;;;;;;22.13;12.10;;;1.40;99.90;;;;;;5081159;28;20465;-79
2023/03/04 09:55:19;;;;;;;34.83;16.70;;;1.30;99.90;;;;;;5086380;28;20830;-78
2023/03/04 09:57:52;;;;;;;26.90;14.97;;;1.80;99.90;;;;;;5094094;28;20448;-78
2023/03/04 10:00:22;;;;;;;24.10;13.30;;;1.60;99.90;;;;;;5086401;28;20485;-78
2023/03/04 10:03:12;;;;;;;22.77;12.30;;;1.70;99.90;;;;;;5072633;28;20511;-78
2023/03/04 10:05:44;;;;;;;21.07;10.63;;;1.90;99.90;;;;;;5073452;28;20489;-78
2023/03/04 10:08:36;;;;;;;25.50;13.10;;;1.80;99.90;;;;;;5073463;28;20804;-77
2023/03/04 10:11:11;;;;;;;32.10;14.50;;;2.10;99.90;;;;;;5073511;28;20446;-78
2023/03/04 10:13:45;;;;;;;28.77;14.73;;;2.10;99.90;;;;;;5073241;28;20561;-76
2023/03/04 10:16:18;;;;;;;29.40;14.37;;;2.40;99.90;;;;;;5072290;28;20871;-76
2023/03/04 10:18:50;;;;;;;25.43;14.30;;;2.50;99.90;;;;;;5073409;28;20969;-78
2023/03/04 10:21:23;;;;;;;24.40;13.87;;;2.50;99.90;;;;;;5080409;28;20941;-77
2023/03/04 10:23:53;;;;;;;34.00;15.40;;;2.60;99.90;;;;;;5079546;28;20811;-78
2023/03/04 10:26:21;;;;;;;25.50;11.73;;;2.60;99.90;;;;;;5093997;28;20453;-78
2023/03/04 10:28:48;;;;;;;21.30;11.33;;;;;;;;;;5093823;28;20483;-79
2023/03/04 10:31:21;;;;;;;35.00;17.27;;;2.50;99.90;;;;;;5092544;28;20859;-78
2023/03/04 10:33:49;;;;;;;31.23;16.23;;;2.50;99.90;;;;;;5093543;28;20459;-77
2023/03/04 10:36:44;;;;;;;34.00;17.30;;;2.80;99.90;;;;;;5093159;28;20440;-77
2023/03/04 10:39:17;;;;;;;27.80;15.03;;;2.90;99.90;;;;;;5093466;28;20456;-78
2023/03/04 10:41:53;;;;;;;32.47;15.80;;;2.80;99.90;;;;;;5093334;28;20497;-78
2023/03/04 10:44:20;;;;;;;29.43;13.03;;;;;;;;;;5082143;28;20468;-82
2023/03/04 10:46:48;;;;;;;25.87;13.57;;;2.60;99.90;;;;;;5075345;28;20458;-77
2023/03/04 10:49:18;;;;;;;28.40;15.67;;;2.80;99.90;;;;;;5085765;28;20467;-80
2023/03/04 10:51:46;;;;;;;33.67;17.27;;;3.00;99.90;;;;;;5081123;28;20466;-81
2023/03/04 10:54:25;;;;;;;31.00;18.60;;;2.80;99.90;;;;;;5077343;28;20464;-82
2023/03/04 10:56:58;;;;;;;27.17;15.20;;;3.40;99.90;;;;;;5088554;28;20463;-82
2023/03/04 10:59:44;;;;;;;34.60;18.00;;;3.70;99.90;;;;;;5081433;28;20450;-82
2023/03/04 11:02:23;;;;;;;31.43;15.40;;;4.30;99.90;;;;;;5072738;28;20508;-82
2023/03/04 11:04:52;;;;;;;30.17;17.60;;;4.40;99.90;;;;;;5084915;28;20928;-83
2023/03/04 11:07:20;;;;;;;27.13;16.50;;;4.30;99.90;;;;;;5092644;28;20473;-83
2023/03/04 11:09:48;;;;;;;32.70;17.87;;;4.30;99.90;;;;;;5075587;28;20507;-80
2023/03/04 11:12:19;;;;;;;30.27;16.03;;;3.90;99.90;;;;;;5072663;28;20470;-79
2023/03/04 11:14:48;;;;;;;31.40;17.93;;;3.60;99.90;;;;;;5072271;28;20442;-82
2023/03/04 11:17:20;;;;;;;32.10;18.10;;;3.60;99.90;;;;;;5071440;28;20446;-77
2023/03/04 11:19:51;;;;;;;35.13;16.70;;;3.60;99.90;;;;;;5078371;28;20452;-78
2023/03/04 11:22:22;;;;;;;34.87;17.73;;;3.60;99.90;;;;;;5072578;28;20489;-78
2023/03/04 11:24:57;;;;;;;40.73;20.20;;;3.50;99.90;;;;;;5072104;28;20498;-78
2023/03/04 11:27:34;;;;;;;33.40;17.27;;;3.40;99.90;;;;;;5072551;28;20490;-81
2023/03/04 11:30:13;;;;;;;35.73;19.63;;;3.30;99.90;;;;;;5072455;28;20464;-82
2023/03/04 11:32:44;;;;;;;33.40;18.43;;;3.20;99.90;;;;;;5070830;28;20447;-79
2023/03/04 11:35:18;;;;;;;37.50;18.17;;;3.00;99.90;;;;;;5072382;28;20449;-79
2023/03/04 11:37:52;;;;;;;38.37;18.73;;;3.20;99.90;;;;;;5077184;28;20445;-78
2023/03/04 11:40:31;;;;;;;34.87;18.20;;;3.30;99.90;;;;;;5074446;28;20465;-78
2023/03/04 11:43:01;;;;;;;33.13;19.03;;;;;;;;;;5072754;28;20453;-81
2023/03/04 11:45:32;;;;;;;36.00;18.80;;;;;;;;;;5073902;28;20466;-85
2023/03/04 11:48:04;;;;;;;27.77;15.87;;;;;;;;;;5071149;28;20442;-78
2023/03/04 11:50:41;;;;;;;34.00;15.73;;;3.30;99.90;;;;;;5085216;28;20798;-88
2023/03/04 11:53:31;;;;;;;19.50;8.90;;;3.00;99.90;;;;;;5096073;28;20444;-78
2023/03/04 11:56:27;;;;;;;31.77;15.37;;;2.90;99.90;;;;;;5093730;28;20444;-79
2023/03/04 11:59:18;;;;;;;23.60;12.60;;;3.10;99.90;;;;;;5096500;28;20449;-81
2023/03/04 12:01:55;;;;;;;22.27;14.33;;;3.00;99.90;;;;;;5095015;28;20487;-84
2023/03/04 12:04:29;;;;;;;33.37;16.70;;;;;;;;;;5095829;28;20440;-80
2023/03/04 12:07:06;;;;;;;35.40;20.10;;;;;;;;;;5089044;28;20563;-78
2023/03/04 12:09:44;;;;;;;29.17;16.47;;;3.40;99.90;;;;;;5078797;28;20990;-82
2023/03/04 12:12:27;;;;;;;28.10;16.60;;;;;;;;;;5080316;28;20481;-79
2023/03/04 12:15:02;;;;;;;34.23;16.67;;;;;;;;;;5077945;28;20792;-80
2023/03/04 12:17:40;;;;;;;31.00;17.43;;;;;;;;;;5082772;28;20464;-81
2023/03/04 12:20:24;;;;;;;29.50;13.50;;;;;;;;;;5078642;28;20831;-78
2023/03/04 12:22:58;;;;;;;41.60;18.87;;;3.20;99.90;;;;;;5082228;28;20491;-80
2023/03/04 12:25:32;;;;;;;26.13;15.60;;;;;;;;;;5074782;28;20465;-80
2023/03/04 12:28:09;;;;;;;28.20;15.60;;;;;;;;;;5080673;28;20467;-83
2023/03/04 12:30:50;;;;;;;31.40;16.00;;;3.40;99.90;;;;;;5096058;28;20794;-82
2023/03/04 12:33:28;;;;;;;23.47;13.60;;;3.60;99.90;;;;;;5086103;28;20461;-79
2023/03/04 12:36:07;;;;;;;25.70;15.20;;;3.70;99.90;;;;;;5075477;28;20449;-78
2023/03/04 12:38:59;;;;;;;29.10;15.87;;;3.60;99.90;;;;;;5075765;28;20461;-79
2023/03/04 12:41:34;;;;;;;25.67;13.80;;;3.70;99.90;;;;;;5081363;28;20491;-79
2023/03/04 12:44:15;;;;;;;30.47;15.73;;;3.70;99.90;;;;;;5075379;28;20484;-78
2023/03/04 12:46:52;;;;;;;29.80;17.33;;;3.90;99.90;;;;;;5073989;28;20971;-78
2023/03/04 12:49:35;;;;;;;23.73;13.97;;;4.00;99.90;;;;;;5077923;28;20469;-78
2023/03/04 12:52:11;;;;;;;30.47;16.67;;;4.10;99.90;;;;;;5086508;28;20819;-82
2023/03/04 12:54:41;;;;;;;30.63;16.40;;;4.30;99.90;;;;;;5092300;28;20447;-78
2023/03/04 12:57:12;;;;;;;30.20;17.50;;;4.50;99.80;;;;;;5088066;28;20446;-80
2023/03/04 12:59:48;;;;;;;36.80;15.77;;;4.60;99.90;;;;;;5074396;28;20461;-78
2023/03/04 13:02:31;;;;;;;29.93;17.37;;;4.60;99.90;;;;;;5076151;28;20496;-83
2023/03/04 13:05:04;;;;;;;26.80;16.10;;;;;;;;;;5074506;28;20465;-78
2023/03/04 13:07:37;;;;;;;28.43;17.73;;;;;;;;;;5075771;28;20490;-77
2023/03/04 13:10:10;;;;;;;29.13;18.00;;;4.30;99.90;;;;;;5074865;28;20446;-83
2023/03/04 13:12:47;;;;;;;28.30;14.67;;;4.30;99.90;;;;;;5074895;28;20836;-78
2023/03/04 13:15:35;;;;;;;15.00;9.60;;;;;;;;;;5087474;28;20947;-76
2023/03/04 13:18:24;;;;;;;27.50;16.20;;;4.10;99.90;;;;;;5087240;28;20474;-83
2023/03/04 13:21:22;;;;;;;28.00;15.47;;;4.20;99.90;;;;;;5073130;28;20463;-79
2023/03/04 13:23:50;;;;;;;36.93;15.90;;;;;;;;;;5074528;28;20507;-77
2023/03/04 13:26:28;;;;;;;33.03;18.00;;;3.90;99.90;;;;;;5074432;28;20836;-77
2023/03/04 13:29:10;;;;;;;30.77;17.80;;;3.90;99.90;;;;;;5074569;28;20441;-81
2023/03/04 13:31:59;;;;;;;31.43;18.30;;;4.10;99.90;;;;;;5072605;28;20457;-80
2023/03/04 13:34:44;;;;;;;16.70;9.57;;;3.90;99.90;;;;;;5075024;28;20470;-78
2023/03/04 13:37:28;;;;;;;35.93;17.73;;;4.00;99.90;;;;;;5086678;28;20469;-81
2023/03/04 13:40:28;;;;;;;41.13;19.37;;;3.80;99.90;;;;;;5082865;28;20492;-77
2023/03/04 13:42:55;;;;;;;37.07;19.83;;;;;;;;;;5073965;28;20564;-78
2023/03/04 13:45:34;;;;;;;39.03;20.20;;;3.60;99.90;;;;;;5077616;28;20491;-78
2023/03/04 13:48:02;;;;;;;37.30;17.77;;;3.80;99.90;;;;;;5076006;28;20457;-77
2023/03/04 13:50:41;;;;;;;37.83;19.30;;;3.80;99.90;;;;;;5074843;28;20458;-77
2023/03/04 13:53:43;;;;;;;37.23;18.60;;;3.80;99.90;;;;;;5078947;28;20485;-78